Time;durP1;ratioP1;P1;durP2;ratioP2;P2;SDS_P1;SDS_P2;PMS_P1;PMS_P2;Temp;Humidity;BMP_temperature;BMP_pressure;BME280_temperature;BME280_humidity;BME280_pressure;Samples;Min_cycle;Max_cycle;Signal;HPM_P1;HPM_P2
2020/12/31 00:01:03;;;;;;;3.50;1.15;;;3.70;99.90;;;;;;5116283;28;20051;-73
2020/12/31 00:03:29;;;;;;;2.65;1.33;;;3.70;99.90;;;;;;5098380;28;20016;-73
2020/12/31 00:05:54;;;;;;;3.13;1.38;;;3.60;99.90;;;;;;5116541;28;20383;-73
2020/12/31 00:08:20;;;;;;;2.55;1.35;;;3.60;99.90;;;;;;5116208;28;20499;-73
2020/12/31 00:10:45;;;;;;;3.03;1.65;;;3.60;99.90;;;;;;5116141;28;20068;-73
2020/12/31 00:13:11;;;;;;;2.15;1.20;;;3.70;99.90;;;;;;5116632;28;20028;-72
2020/12/31 00:15:37;;;;;;;1.60;1.00;;;3.70;99.90;;;;;;5116724;28;20421;-72
2020/12/31 00:18:03;;;;;;;4.00;1.65;;;3.70;99.90;;;;;;5098474;28;20027;-73
2020/12/31 00:20:29;;;;;;;5.82;1.83;;;3.70;99.90;;;;;;5115893;28;20023;-73
2020/12/31 00:22:55;;;;;;;4.90;1.63;;;3.70;99.90;;;;;;5116011;28;20024;-73
2020/12/31 00:25:20;;;;;;;3.35;1.20;;;3.60;99.90;;;;;;5115939;28;20015;-73
2020/12/31 00:27:46;;;;;;;6.28;1.77;;;3.60;99.90;;;;;;5116154;28;20023;-73
2020/12/31 00:30:16;;;;;;;4.25;1.35;;;3.60;99.90;;;;;;5115528;28;20031;-73
2020/12/31 00:32:52;;;;;;;6.70;2.25;;;3.70;99.90;;;;;;5115556;28;20023;-73
2020/12/31 00:35:23;;;;;;;6.80;2.60;;;3.70;99.90;;;;;;5097174;28;20024;-74
2020/12/31 00:37:48;;;;;;;4.43;2.10;;;3.60;99.90;;;;;;5115535;28;20024;-73
2020/12/31 00:40:14;;;;;;;3.45;2.03;;;3.60;99.90;;;;;;5115878;28;20368;-73
2020/12/31 00:42:39;;;;;;;4.45;2.42;;;3.60;99.90;;;;;;5097240;28;20019;-73
2020/12/31 00:45:05;;;;;;;4.22;2.03;;;3.60;99.90;;;;;;5116050;28;20024;-73
2020/12/31 00:47:30;;;;;;;5.32;2.60;;;3.70;99.90;;;;;;5115322;28;20067;-73
2020/12/31 00:49:56;;;;;;;5.20;3.03;;;3.70;99.90;;;;;;5115347;28;20024;-74
2020/12/31 00:52:21;;;;;;;5.47;2.92;;;3.70;99.90;;;;;;5115907;28;20028;-74
2020/12/31 00:54:47;;;;;;;8.93;2.97;;;3.70;99.90;;;;;;5097177;28;20034;-73
2020/12/31 00:57:12;;;;;;;7.57;3.80;;;3.70;99.90;;;;;;5115304;28;20383;-73
2020/12/31 00:59:38;;;;;;;7.20;3.83;;;3.70;99.90;;;;;;5115728;28;20024;-73
2020/12/31 01:02:04;;;;;;;9.32;4.30;;;3.70;99.90;;;;;;5115739;28;20082;-73
2020/12/31 01:04:29;;;;;;;6.80;3.70;;;3.70;99.90;;;;;;5097262;28;20022;-73
2020/12/31 01:06:54;;;;;;;13.40;4.68;;;3.70;99.90;;;;;;5115007;28;20020;-73
2020/12/31 01:09:20;;;;;;;10.95;4.75;;;3.70;99.90;;;;;;5115137;28;20063;-73
2020/12/31 01:11:46;;;;;;;10.63;5.45;;;3.80;99.90;;;;;;5114996;28;20449;-73
2020/12/31 01:14:11;;;;;;;9.30;5.20;;;3.80;99.90;;;;;;5114912;28;20024;-73
2020/12/31 01:16:37;;;;;;;10.10;5.45;;;3.80;99.90;;;;;;5115005;28;20023;-74
2020/12/31 01:19:03;;;;;;;9.27;5.13;;;3.80;99.90;;;;;;5096547;28;20023;-74
2020/12/31 01:21:28;;;;;;;11.23;5.07;;;3.80;99.90;;;;;;5096401;28;20023;-75
2020/12/31 01:23:54;;;;;;;10.15;4.75;;;3.80;99.90;;;;;;5114899;28;20039;-74
2020/12/31 01:26:31;;;;;;;10.98;5.32;;;3.80;99.90;;;;;;5096427;28;20027;-74
2020/12/31 01:28:57;;;;;;;6.85;3.38;;;3.70;99.90;;;;;;5115172;28;20068;-74
2020/12/31 01:31:23;;;;;;;6.50;2.33;;;3.70;99.90;;;;;;5114576;28;20091;-74
2020/12/31 01:33:48;;;;;;;2.00;0.75;;;3.70;99.90;;;;;;5114762;28;20022;-74
2020/12/31 01:36:14;;;;;;;2.20;0.60;;;3.60;99.90;;;;;;5114691;28;20099;-74
2020/12/31 01:41:07;;;;;;;5.78;1.58;;;3.50;99.90;;;;;;5119483;27;20101;-72
2020/12/31 01:43:33;;;;;;;2.80;1.00;;;3.40;99.90;;;;;;5116453;27;20023;-72
2020/12/31 01:45:58;;;;;;;7.20;0.95;;;3.30;99.90;;;;;;5135074;27;20072;-72
2020/12/31 01:48:24;;;;;;;2.00;0.70;;;3.30;99.90;;;;;;5116866;27;20018;-72
2020/12/31 01:50:50;;;;;;;6.13;0.75;;;3.20;99.90;;;;;;5134749;27;20019;-72
2020/12/31 01:53:15;;;;;;;4.55;1.40;;;3.20;99.90;;;;;;5135097;27;20532;-72
2020/12/31 01:55:42;;;;;;;4.20;1.10;;;3.20;99.90;;;;;;5134992;27;20031;-72
2020/12/31 01:58:08;;;;;;;3.28;1.15;;;3.10;99.90;;;;;;5135191;27;20023;-72
2020/12/31 02:00:33;;;;;;;3.78;1.60;;;3.10;99.90;;;;;;5134941;28;20027;-72
2020/12/31 02:02:59;;;;;;;6.70;1.58;;;3.10;99.90;;;;;;5116237;28;20111;-72
2020/12/31 02:05:25;;;;;;;3.22;1.45;;;3.10;99.90;;;;;;5134798;28;20050;-72
2020/12/31 02:07:51;;;;;;;4.28;1.10;;;3.10;99.90;;;;;;5134940;28;20020;-72
2020/12/31 02:10:16;;;;;;;3.05;1.20;;;3.10;99.90;;;;;;5134742;28;20023;-72
2020/12/31 02:12:42;;;;;;;2.40;0.93;;;3.10;99.90;;;;;;5134903;28;20031;-72
2020/12/31 02:15:14;;;;;;;4.30;1.73;;;3.10;99.90;;;;;;5134700;28;20049;-72
2020/12/31 02:17:39;;;;;;;5.10;1.38;;;3.10;99.90;;;;;;5134999;28;20020;-72
2020/12/31 02:20:05;;;;;;;6.30;1.45;;;3.10;99.90;;;;;;5135079;28;20386;-72
2020/12/31 02:22:31;;;;;;;2.85;1.20;;;3.20;99.90;;;;;;5134729;28;20023;-72
2020/12/31 02:24:56;;;;;;;3.33;1.33;;;3.20;99.90;;;;;;5135094;28;20382;-72
2020/12/31 02:27:22;;;;;;;2.33;1.00;;;3.20;99.90;;;;;;5135303;28;20030;-72
2020/12/31 02:29:47;;;;;;;3.42;1.45;;;3.20;99.90;;;;;;5134936;28;20102;-72
2020/12/31 02:32:13;;;;;;;2.60;1.00;;;3.10;99.90;;;;;;5134558;28;20508;-72
2020/12/31 02:34:38;;;;;;;5.15;1.50;;;3.20;99.90;;;;;;5134368;28;20483;-72
2020/12/31 02:37:04;;;;;;;2.78;0.95;;;3.20;99.90;;;;;;5116135;28;20075;-72
2020/12/31 02:39:29;;;;;;;2.88;1.20;;;3.20;99.90;;;;;;5134329;28;20114;-72
2020/12/31 02:41:55;;;;;;;7.18;1.80;;;3.30;99.90;;;;;;5134489;28;20098;-72
2020/12/31 02:44:20;;;;;;;4.80;1.77;;;3.30;99.90;;;;;;5134803;28;20534;-72
2020/12/31 02:46:46;;;;;;;4.05;1.77;;;3.30;99.90;;;;;;5133776;28;20103;-72
2020/12/31 02:49:11;;;;;;;5.03;1.27;;;3.20;99.90;;;;;;5115375;28;20172;-72
2020/12/31 02:51:37;;;;;;;3.10;1.73;;;3.30;99.90;;;;;;5134664;28;20020;-72
2020/12/31 02:54:04;;;;;;;5.13;1.58;;;3.30;99.90;;;;;;5134067;28;20034;-72
2020/12/31 02:56:29;;;;;;;5.20;1.55;;;3.30;99.90;;;;;;5134464;28;20026;-72
2020/12/31 02:58:55;;;;;;;2.75;0.95;;;3.20;99.90;;;;;;5134315;28;20102;-72
2020/12/31 03:01:21;;;;;;;4.75;1.38;;;3.20;99.90;;;;;;5115736;28;20030;-72
2020/12/31 03:03:48;;;;;;;3.47;1.30;;;3.20;99.90;;;;;;5134292;28;20098;-72
2020/12/31 03:06:14;;;;;;;7.45;1.92;;;3.20;99.90;;;;;;5134387;28;20023;-72
2020/12/31 03:08:40;;;;;;;3.97;1.80;;;3.20;99.90;;;;;;5134334;28;20428;-72
2020/12/31 03:11:12;;;;;;;10.52;2.53;;;3.20;99.90;;;;;;5134293;28;20015;-72
2020/12/31 03:13:37;;;;;;;6.10;2.47;;;3.20;99.90;;;;;;5134185;27;20072;-72
2020/12/31 03:16:03;;;;;;;15.13;3.13;;;3.30;99.90;;;;;;5136549;27;20482;-72
2020/12/31 03:18:28;;;;;;;9.32;3.22;;;3.20;99.90;;;;;;5137865;27;20463;-72
2020/12/31 03:20:54;;;;;;;6.90;3.30;;;3.30;99.90;;;;;;5119179;27;20023;-72
2020/12/31 03:23:19;;;;;;;9.13;2.92;;;3.20;99.90;;;;;;5137969;27;20024;-72
2020/12/31 03:25:45;;;;;;;6.25;2.58;;;3.30;99.90;;;;;;5137330;27;20502;-72
2020/12/31 03:28:13;;;;;;;6.38;3.08;;;3.30;99.90;;;;;;5137899;27;20363;-72
2020/12/31 03:30:40;;;;;;;7.07;2.95;;;3.30;99.90;;;;;;5119148;27;20023;-72
2020/12/31 03:33:05;;;;;;;11.30;4.25;;;3.30;99.90;;;;;;5119312;27;20132;-72
2020/12/31 03:35:33;;;;;;;6.43;3.15;;;3.30;99.90;;;;;;5137706;27;20054;-72
2020/12/31 03:38:01;;;;;;;8.18;4.40;;;3.30;99.90;;;;;;5119080;27;20019;-72
2020/12/31 03:40:26;;;;;;;10.95;4.68;;;3.40;99.90;;;;;;5137211;27;20035;-73
2020/12/31 03:42:52;;;;;;;10.55;4.63;;;3.40;99.90;;;;;;5137176;27;20030;-72
2020/12/31 03:45:17;;;;;;;10.15;4.50;;;3.40;99.90;;;;;;5137434;27;20034;-72
2020/12/31 03:47:43;;;;;;;11.25;5.25;;;3.40;99.90;;;;;;5138789;27;20023;-72
2020/12/31 03:50:09;;;;;;;12.52;5.88;;;3.50;99.90;;;;;;5137080;27;20076;-72
2020/12/31 03:52:34;;;;;;;10.30;5.18;;;3.50;99.90;;;;;;5136985;27;20027;-72
2020/12/31 03:55:00;;;;;;;11.43;5.53;;;3.40;99.90;;;;;;5137275;27;20103;-72
2020/12/31 03:57:26;;;;;;;10.93;5.30;;;3.50;99.90;;;;;;5137309;27;20020;-72
2020/12/31 03:59:51;;;;;;;9.98;5.25;;;3.50;99.90;;;;;;5137506;27;20106;-72
2020/12/31 04:02:17;;;;;;;12.32;6.18;;;3.50;99.90;;;;;;5137062;27;20027;-72
2020/12/31 04:04:42;;;;;;;11.45;5.78;;;3.50;99.90;;;;;;5137325;27;20148;-72
2020/12/31 04:07:08;;;;;;;13.32;5.78;;;3.50;99.90;;;;;;5137226;27;20015;-72
2020/12/31 04:09:34;;;;;;;11.50;5.45;;;3.60;99.90;;;;;;5137198;27;20030;-72
2020/12/31 04:12:00;;;;;;;12.95;5.82;;;3.60;99.90;;;;;;5137468;27;20096;-72
2020/12/31 04:14:28;;;;;;;12.82;5.78;;;3.60;99.90;;;;;;5118545;27;20027;-72
2020/12/31 04:16:54;;;;;;;15.05;5.95;;;3.60;99.90;;;;;;5137535;27;20027;-72
2020/12/31 04:19:19;;;;;;;12.35;5.88;;;3.60;99.90;;;;;;5136816;27;20038;-72
2020/12/31 04:21:45;;;;;;;10.82;5.13;;;3.60;99.90;;;;;;5136670;27;20064;-73
2020/12/31 04:24:10;;;;;;;12.52;5.78;;;3.60;99.90;;;;;;5136942;27;20015;-72
2020/12/31 04:26:36;;;;;;;13.90;5.95;;;3.50;99.90;;;;;;5136152;27;20015;-72
2020/12/31 04:29:02;;;;;;;10.93;5.22;;;3.50;99.90;;;;;;5117926;27;20030;-72
2020/12/31 04:31:28;;;;;;;10.38;5.93;;;3.50;99.90;;;;;;5136685;27;20015;-73
2020/12/31 04:33:53;;;;;;;11.73;5.70;;;3.40;99.90;;;;;;5136795;27;20026;-72
2020/12/31 04:36:19;;;;;;;12.38;5.93;;;3.40;99.90;;;;;;5136363;27;20027;-73
2020/12/31 04:38:44;;;;;;;9.32;4.80;;;3.40;99.90;;;;;;5135942;27;20471;-72
2020/12/31 04:41:12;;;;;;;13.63;6.30;;;3.40;99.90;;;;;;5136073;27;20034;-73
2020/12/31 04:43:39;;;;;;;11.20;5.63;;;3.30;99.90;;;;;;5136046;27;20042;-73
2020/12/31 04:46:08;;;;;;;11.60;5.38;;;3.30;99.90;;;;;;5136528;27;20355;-72
2020/12/31 04:48:49;;;;;;;12.00;6.60;;;3.30;99.90;;;;;;5136653;27;20022;-72
2020/12/31 04:51:15;;;;;;;11.90;5.68;;;3.30;99.90;;;;;;5136213;27;20023;-73
2020/12/31 04:53:42;;;;;;;11.35;5.75;;;3.20;99.90;;;;;;5117718;27;20023;-72
2020/12/31 04:56:09;;;;;;;9.63;5.55;;;3.30;99.90;;;;;;5117633;27;20131;-72
2020/12/31 04:58:35;;;;;;;13.48;6.45;;;3.30;99.90;;;;;;5117722;27;20019;-72
2020/12/31 05:01:00;;;;;;;12.63;5.75;;;3.20;99.90;;;;;;5135961;27;20428;-72
2020/12/31 05:03:26;;;;;;;11.65;5.95;;;3.30;99.90;;;;;;5136408;27;20019;-72
2020/12/31 05:05:56;;;;;;;11.50;5.55;;;3.20;99.90;;;;;;5136297;27;20019;-71
2020/12/31 05:08:31;;;;;;;13.15;5.45;;;3.30;99.90;;;;;;5117229;27;20018;-71
2020/12/31 05:10:58;;;;;;;14.07;5.82;;;3.30;99.90;;;;;;5135613;27;20030;-71
2020/12/31 05:13:23;;;;;;;11.80;6.30;;;3.30;99.90;;;;;;5135824;27;20106;-71
2020/12/31 05:15:49;;;;;;;13.82;6.55;;;3.30;99.90;;;;;;5117153;27;20110;-71
2020/12/31 05:18:26;;;;;;;15.73;6.45;;;3.30;99.90;;;;;;5135741;27;20039;-71
2020/12/31 05:20:57;;;;;;;14.38;7.13;;;3.40;99.90;;;;;;5135347;27;20490;-72
2020/12/31 05:23:32;;;;;;;12.68;6.40;;;3.40;99.90;;;;;;5117049;27;20027;-72
2020/12/31 05:25:58;;;;;;;13.40;6.97;;;3.40;99.90;;;;;;5135261;27;20495;-74
2020/12/31 05:28:27;;;;;;;14.05;7.07;;;3.40;99.90;;;;;;5135126;27;20027;-71
2020/12/31 05:31:11;;;;;;;12.10;6.53;;;3.40;99.90;;;;;;5135239;27;20027;-71
2020/12/31 05:33:40;;;;;;;15.38;6.93;;;3.50;99.90;;;;;;5117461;27;20023;-71
2020/12/31 05:36:16;;;;;;;14.45;7.43;;;3.50;99.90;;;;;;5135244;27;20016;-71
2020/12/31 05:38:57;;;;;;;13.50;6.40;;;3.50;99.90;;;;;;5134827;27;20075;-71
2020/12/31 05:41:30;;;;;;;15.77;7.10;;;3.50;99.90;;;;;;5135195;27;20491;-71
2020/12/31 05:43:56;;;;;;;16.98;7.25;;;3.50;99.90;;;;;;5117107;27;20359;-71
2020/12/31 05:46:21;;;;;;;14.57;6.35;;;3.50;99.90;;;;;;5135193;27;20174;-72
2020/12/31 05:49:10;;;;;;;17.90;6.97;;;3.50;99.90;;;;;;5135097;27;20028;-71
2020/12/31 05:51:38;;;;;;;14.82;6.78;;;3.50;99.90;;;;;;5135133;27;20026;-71
2020/12/31 05:54:13;;;;;;;14.57;7.28;;;3.50;99.90;;;;;;5135224;27;20023;-71
2020/12/31 05:56:40;;;;;;;19.42;7.68;;;3.50;99.90;;;;;;5116344;27;20050;-71
2020/12/31 05:59:16;;;;;;;16.92;7.50;;;3.50;99.90;;;;;;5116242;28;20019;-71
2020/12/31 06:01:53;;;;;;;13.98;6.88;;;3.40;99.90;;;;;;5134795;27;20092;-71
2020/12/31 06:04:19;;;;;;;19.50;7.38;;;3.50;99.90;;;;;;5134858;28;20072;-71
2020/12/31 06:06:50;;;;;;;17.50;7.57;;;3.50;99.90;;;;;;5134754;28;20027;-71
2020/12/31 06:09:27;;;;;;;16.58;7.47;;;3.50;99.90;;;;;;5134901;28;20088;-72
2020/12/31 06:12:00;;;;;;;15.90;7.35;;;3.50;99.90;;;;;;5134671;28;20386;-71
2020/12/31 06:14:28;;;;;;;17.38;7.82;;;3.50;99.90;;;;;;5135684;28;20015;-71
2020/12/31 06:17:03;;;;;;;18.83;7.93;;;3.50;99.90;;;;;;5134921;28;20016;-71
2020/12/31 06:19:38;;;;;;;25.85;9.18;;;3.50;99.90;;;;;;5134417;28;20031;-72
2020/12/31 06:22:08;;;;;;;14.98;7.40;;;3.50;99.90;;;;;;5134948;28;20035;-71
2020/12/31 06:24:42;;;;;;;16.50;7.93;;;3.40;99.90;;;;;;5134980;28;20033;-71
2020/12/31 06:27:10;;;;;;;17.00;7.30;;;3.50;99.90;;;;;;5134403;28;20011;-71
2020/12/31 06:29:58;;;;;;;18.45;7.68;;;3.50;99.90;;;;;;5134347;28;20364;-72
2020/12/31 06:32:34;;;;;;;16.98;7.45;;;3.60;99.90;;;;;;5134490;28;20024;-71
2020/12/31 06:35:08;;;;;;;18.70;7.60;;;3.50;99.90;;;;;;5135146;28;20359;-71
2020/12/31 06:37:34;;;;;;;18.25;8.18;;;3.60;99.90;;;;;;5134284;28;20037;-72
2020/12/31 06:40:25;;;;;;;18.85;7.95;;;3.50;99.90;;;;;;5115145;28;20495;-71
2020/12/31 06:43:05;;;;;;;16.90;7.45;;;3.50;99.90;;;;;;5134474;28;20023;-71
2020/12/31 06:45:45;;;;;;;19.17;7.88;;;3.50;99.90;;;;;;5116234;28;20027;-72
2020/12/31 06:48:25;;;;;;;18.88;8.75;;;3.50;99.90;;;;;;5134128;27;20360;-71
2020/12/31 06:50:59;;;;;;;21.70;9.15;;;3.60;99.90;;;;;;5138330;27;20031;-71
2020/12/31 06:53:44;;;;;;;17.63;8.18;;;3.50;99.90;;;;;;5119695;27;20434;-71
2020/12/31 06:56:11;;;;;;;21.50;9.02;;;3.50;99.90;;;;;;5119721;27;20403;-71
2020/12/31 06:58:38;;;;;;;21.45;8.57;;;3.60;99.90;;;;;;5137967;27;20019;-71
2020/12/31 07:01:23;;;;;;;19.75;8.80;;;3.60;99.90;;;;;;5137727;27;20129;-71
2020/12/31 07:03:49;;;;;;;22.30;9.52;;;3.50;99.90;;;;;;5138008;27;20497;-72
2020/12/31 07:06:20;;;;;;;20.00;8.55;;;3.60;99.90;;;;;;5137756;27;20011;-71
2020/12/31 07:08:46;;;;;;;22.10;9.52;;;3.60;99.90;;;;;;5137860;27;20060;-71
2020/12/31 07:11:12;;;;;;;24.20;9.30;;;3.60;99.90;;;;;;5119255;27;20029;-72
2020/12/31 07:13:39;;;;;;;20.52;9.30;;;3.60;99.90;;;;;;5137716;27;20023;-71
2020/12/31 07:16:05;;;;;;;19.70;9.07;;;3.60;99.90;;;;;;5137634;27;20034;-71
2020/12/31 07:18:33;;;;;;;20.75;8.30;;;3.60;99.90;;;;;;5137654;27;20030;-71
2020/12/31 07:21:00;;;;;;;14.05;6.30;;;3.60;99.90;;;;;;5137632;27;20022;-72
2020/12/31 07:23:45;;;;;;;19.38;8.20;;;3.60;99.90;;;;;;5118951;27;20023;-71
2020/12/31 07:26:14;;;;;;;21.05;7.70;;;3.60;99.90;;;;;;5137114;27;20073;-71
2020/12/31 07:28:39;;;;;;;21.70;7.68;;;3.60;99.90;;;;;;5137465;27;20053;-71
2020/12/31 07:31:05;;;;;;;17.90;7.40;;;3.60;99.90;;;;;;5137229;27;20027;-72
2020/12/31 07:33:40;;;;;;;16.80;6.95;;;3.60;99.90;;;;;;5137566;27;20034;-71
2020/12/31 07:36:12;;;;;;;18.30;7.88;;;3.60;99.90;;;;;;5137121;27;20024;-71
2020/12/31 07:38:38;;;;;;;15.90;7.28;;;3.50;99.90;;;;;;5137120;27;20038;-72
2020/12/31 07:41:04;;;;;;;20.85;7.93;;;3.50;99.90;;;;;;5136770;27;20020;-72
2020/12/31 07:43:30;;;;;;;19.75;8.10;;;3.60;99.90;;;;;;5118628;27;20022;-71
2020/12/31 07:45:58;;;;;;;17.02;7.78;;;3.50;99.90;;;;;;5137928;27;20019;-71
2020/12/31 07:48:25;;;;;;;18.60;7.13;;;3.50;99.90;;;;;;5118690;27;20027;-71
2020/12/31 07:50:59;;;;;;;15.32;6.93;;;3.50;99.90;;;;;;5136797;27;20114;-71
2020/12/31 07:53:30;;;;;;;15.55;7.32;;;3.50;99.90;;;;;;5137058;27;20056;-71
2020/12/31 07:55:57;;;;;;;15.63;7.00;;;3.50;99.90;;;;;;5118706;27;20423;-72
2020/12/31 07:58:24;;;;;;;15.20;6.90;;;3.50;99.90;;;;;;5136963;27;20059;-72
2020/12/31 08:01:03;;;;;;;21.88;7.78;;;3.60;99.90;;;;;;5136041;27;20027;-72
2020/12/31 08:03:29;;;;;;;21.95;7.85;;;3.60;99.90;;;;;;5118399;27;20023;-71
2020/12/31 08:05:56;;;;;;;19.05;7.32;;;3.60;99.90;;;;;;5118150;27;20418;-71
2020/12/31 08:08:22;;;;;;;19.20;7.80;;;3.60;99.90;;;;;;5136599;27;20026;-71
2020/12/31 08:10:48;;;;;;;17.23;7.28;;;3.60;99.90;;;;;;5136794;27;20019;-72
2020/12/31 08:13:16;;;;;;;15.23;6.30;;;3.60;99.90;;;;;;5136616;27;20114;-71
2020/12/31 08:15:47;;;;;;;16.65;7.35;;;3.60;99.90;;;;;;5118034;27;20023;-71
2020/12/31 08:18:13;;;;;;;17.38;8.20;;;3.70;99.90;;;;;;5118070;27;20080;-71
2020/12/31 08:20:40;;;;;;;21.58;7.43;;;3.70;99.90;;;;;;5136442;27;20027;-71
2020/12/31 08:23:32;;;;;;;15.65;6.50;;;3.70;99.90;;;;;;5136656;27;20042;-71
2020/12/31 08:25:59;;;;;;;16.58;7.18;;;3.70;99.90;;;;;;5117037;27;20114;-71
2020/12/31 08:28:25;;;;;;;20.80;7.45;;;3.70;99.90;;;;;;5136267;27;20467;-72
2020/12/31 08:30:51;;;;;;;14.40;6.80;;;3.70;99.90;;;;;;5136645;27;20026;-72
2020/12/31 08:33:22;;;;;;;14.05;6.70;;;3.70;99.90;;;;;;5135741;27;20026;-72
2020/12/31 08:35:49;;;;;;;18.05;5.80;;;3.70;99.90;;;;;;5136852;27;20011;-72
2020/12/31 08:38:15;;;;;;;17.23;6.90;;;3.70;99.90;;;;;;5136319;27;20506;-72
2020/12/31 08:40:46;;;;;;;15.20;6.65;;;3.70;99.90;;;;;;5117494;27;20023;-72
2020/12/31 08:43:48;;;;;;;13.23;6.00;;;3.70;99.90;;;;;;5135781;27;20059;-72
2020/12/31 08:46:22;;;;;;;12.63;6.07;;;3.80;99.90;;;;;;5130609;27;20035;-72
2020/12/31 08:48:56;;;;;;;15.73;6.78;;;3.80;99.90;;;;;;5135916;27;20472;-72
2020/12/31 08:51:22;;;;;;;14.98;6.78;;;3.80;99.90;;;;;;5135770;27;20147;-72
2020/12/31 08:53:48;;;;;;;15.18;7.00;;;3.80;99.90;;;;;;5135922;27;20076;-72
2020/12/31 08:56:14;;;;;;;15.73;6.30;;;3.80;99.90;;;;;;5118574;27;20027;-73
2020/12/31 08:58:39;;;;;;;14.77;5.90;;;3.80;99.90;;;;;;5136153;27;20026;-73
2020/12/31 09:01:05;;;;;;;15.55;7.03;;;3.90;99.90;;;;;;5135487;27;20145;-73
2020/12/31 09:03:30;;;;;;;13.45;6.22;;;3.90;99.90;;;;;;5135647;27;20047;-73
2020/12/31 09:06:02;;;;;;;12.82;5.90;;;3.90;99.90;;;;;;5135341;27;20037;-73
2020/12/31 09:08:30;;;;;;;16.60;5.85;;;3.90;99.90;;;;;;5135789;27;20019;-73
2020/12/31 09:11:05;;;;;;;18.85;5.72;;;3.90;99.90;;;;;;5117168;27;20019;-72
2020/12/31 09:13:39;;;;;;;12.82;5.60;;;3.90;99.90;;;;;;5117310;27;20527;-72
2020/12/31 09:16:11;;;;;;;13.52;5.93;;;3.90;99.90;;;;;;5136173;27;20019;-72
2020/12/31 09:18:37;;;;;;;14.15;5.97;;;3.90;99.90;;;;;;5135046;27;20023;-72
2020/12/31 09:21:03;;;;;;;17.08;6.43;;;3.90;99.90;;;;;;5135445;27;20490;-72
2020/12/31 09:23:29;;;;;;;16.75;6.30;;;3.90;99.90;;;;;;5135313;27;20027;-72
2020/12/31 09:25:55;;;;;;;16.00;7.03;;;4.00;99.90;;;;;;5135160;27;20154;-72
2020/12/31 09:28:20;;;;;;;12.75;5.35;;;4.00;99.90;;;;;;5116783;27;20026;-72
2020/12/31 09:30:46;;;;;;;13.02;4.82;;;4.00;99.90;;;;;;5134874;27;20023;-72
2020/12/31 09:33:16;;;;;;;12.63;5.30;;;4.00;99.90;;;;;;5135059;27;20109;-72
2020/12/31 09:35:43;;;;;;;15.98;5.13;;;4.00;99.90;;;;;;5134942;27;20058;-72
2020/12/31 09:38:09;;;;;;;13.38;5.00;;;4.00;99.90;;;;;;5135554;27;20057;-72
2020/12/31 09:40:35;;;;;;;11.68;5.18;;;4.00;99.90;;;;;;5134760;27;20046;-72
2020/12/31 09:43:01;;;;;;;12.73;5.75;;;4.00;99.90;;;;;;5134921;27;20039;-72
2020/12/31 09:45:29;;;;;;;13.98;5.32;;;4.00;99.90;;;;;;5134352;27;20564;-72
2020/12/31 09:47:59;;;;;;;14.60;4.32;;;3.90;99.90;;;;;;5134932;27;20023;-72
2020/12/31 09:50:25;;;;;;;11.38;5.10;;;3.90;99.90;;;;;;5135422;27;20026;-72
2020/12/31 09:52:51;;;;;;;13.95;5.53;;;4.00;99.90;;;;;;5135048;27;20474;-72
2020/12/31 09:55:16;;;;;;;24.77;5.88;;;3.90;99.90;;;;;;5134821;27;20022;-72
2020/12/31 09:57:42;;;;;;;14.73;5.55;;;3.90;99.90;;;;;;5116283;27;20455;-72
2020/12/31 10:00:07;;;;;;;12.50;5.22;;;3.90;99.90;;;;;;5134506;27;20054;-72
2020/12/31 10:02:33;;;;;;;21.50;6.28;;;4.00;99.90;;;;;;5134148;27;20015;-72
2020/12/31 10:04:59;;;;;;;16.20;5.50;;;3.90;99.90;;;;;;5134733;28;20498;-72
2020/12/31 10:07:24;;;;;;;13.40;5.57;;;4.00;99.90;;;;;;5116123;28;20026;-72
2020/12/31 10:09:50;;;;;;;13.80;4.97;;;4.00;99.90;;;;;;5134877;28;20027;-72
2020/12/31 10:12:15;;;;;;;10.40;4.78;;;4.00;99.90;;;;;;5134619;28;20023;-72
2020/12/31 10:14:42;;;;;;;14.55;4.68;;;4.10;99.90;;;;;;5134650;28;20399;-72
2020/12/31 10:17:08;;;;;;;10.20;4.47;;;4.10;99.90;;;;;;5116073;28;20031;-72
2020/12/31 10:19:35;;;;;;;11.27;4.18;;;4.00;99.90;;;;;;5134238;28;20073;-73
2020/12/31 10:22:01;;;;;;;11.55;5.32;;;4.00;99.90;;;;;;5115815;28;20042;-72
2020/12/31 10:24:26;;;;;;;15.73;4.72;;;4.00;99.90;;;;;;5136341;27;20015;-71
2020/12/31 10:26:52;;;;;;;12.10;4.60;;;4.00;99.90;;;;;;5120253;27;20019;-71
2020/12/31 10:29:18;;;;;;;11.25;4.75;;;4.00;99.90;;;;;;5139091;27;20023;-71
2020/12/31 10:31:55;;;;;;;10.00;4.85;;;4.00;99.90;;;;;;5138388;27;20012;-72
2020/12/31 10:34:21;;;;;;;10.18;4.40;;;4.00;99.90;;;;;;5138713;27;20027;-72
2020/12/31 10:36:54;;;;;;;11.88;4.88;;;4.00;99.90;;;;;;5138520;27;20061;-72
2020/12/31 10:39:20;;;;;;;13.52;5.57;;;4.00;99.90;;;;;;5138015;27;20020;-71
2020/12/31 10:41:47;;;;;;;11.70;4.70;;;4.00;99.90;;;;;;5138649;27;20072;-71
2020/12/31 10:44:13;;;;;;;11.43;4.22;;;4.10;99.90;;;;;;5138419;27;20019;-71
2020/12/31 10:46:39;;;;;;;11.65;5.88;;;4.10;99.90;;;;;;5138075;27;20023;-71
2020/12/31 10:49:05;;;;;;;11.48;3.95;;;4.10;99.90;;;;;;5137979;27;20042;-71
2020/12/31 10:51:37;;;;;;;10.05;3.53;;;4.20;99.90;;;;;;5137586;27;20067;-72
2020/12/31 10:54:04;;;;;;;11.00;4.15;;;4.20;99.90;;;;;;5137962;27;20094;-72
2020/12/31 10:56:30;;;;;;;17.38;5.18;;;4.20;99.90;;;;;;5138234;27;20023;-72
2020/12/31 10:58:57;;;;;;;11.05;5.10;;;4.30;99.90;;;;;;5138338;27;20348;-72
2020/12/31 11:01:22;;;;;;;11.40;5.63;;;4.30;99.90;;;;;;5138233;27;20019;-72
2020/12/31 11:03:48;;;;;;;14.80;5.57;;;4.30;99.90;;;;;;5137757;27;20042;-73
2020/12/31 11:06:26;;;;;;;14.75;5.72;;;4.40;99.90;;;;;;5137823;27;20068;-72
2020/12/31 11:08:53;;;;;;;15.77;6.80;;;4.40;99.90;;;;;;5118347;27;20130;-72
2020/12/31 11:11:27;;;;;;;15.13;6.80;;;4.50;99.90;;;;;;5137406;27;20031;-72
2020/12/31 11:13:54;;;;;;;13.70;5.75;;;4.50;99.90;;;;;;5119229;27;20027;-72
2020/12/31 11:16:20;;;;;;;14.50;6.15;;;4.50;99.90;;;;;;5137496;27;20029;-72
2020/12/31 11:18:46;;;;;;;17.80;6.63;;;4.70;99.90;;;;;;5119305;27;20026;-73
2020/12/31 11:21:13;;;;;;;16.75;7.50;;;4.70;99.90;;;;;;5137436;27;20027;-73
2020/12/31 11:23:39;;;;;;;18.88;7.18;;;4.70;99.90;;;;;;5137545;27;20471;-73
2020/12/31 11:26:21;;;;;;;21.42;8.77;;;4.80;99.90;;;;;;5137484;27;20103;-73
2020/12/31 11:28:49;;;;;;;25.52;8.50;;;4.80;99.90;;;;;;5137728;27;20393;-72
2020/12/31 11:31:15;;;;;;;20.27;8.27;;;4.80;99.90;;;;;;5119077;27;20015;-73
2020/12/31 11:33:42;;;;;;;25.23;9.18;;;4.80;99.90;;;;;;5137329;27;20071;-73
2020/12/31 11:36:08;;;;;;;22.13;8.95;;;4.90;99.90;;;;;;5136416;27;20019;-73
2020/12/31 11:38:35;;;;;;;22.92;8.93;;;5.00;99.90;;;;;;5137139;27;20023;-73
2020/12/31 11:41:02;;;;;;;20.40;8.00;;;5.00;99.90;;;;;;5118381;27;20027;-73
2020/12/31 11:43:28;;;;;;;22.45;8.85;;;5.10;99.90;;;;;;5137214;27;20072;-73
2020/12/31 11:45:53;;;;;;;26.60;9.40;;;5.20;99.90;;;;;;5118691;27;20023;-72
2020/12/31 11:48:19;;;;;;;22.02;9.10;;;5.10;99.90;;;;;;5136991;27;20027;-72
2020/12/31 11:50:45;;;;;;;18.67;8.02;;;5.20;99.90;;;;;;5136863;27;20118;-72
2020/12/31 11:53:11;;;;;;;21.90;8.98;;;5.30;99.90;;;;;;5118811;27;20027;-73
2020/12/31 11:55:36;;;;;;;20.88;8.70;;;5.40;99.90;;;;;;5136570;27;20102;-73
2020/12/31 11:58:02;;;;;;;22.17;8.80;;;5.30;99.90;;;;;;5136699;27;20037;-72
2020/12/31 12:00:28;;;;;;;20.90;8.52;;;5.30;99.90;;;;;;5136632;27;20019;-72
2020/12/31 12:02:53;;;;;;;23.15;9.55;;;5.20;99.90;;;;;;5117679;27;20023;-72
2020/12/31 12:05:19;;;;;;;21.27;9.38;;;5.10;99.90;;;;;;5136109;27;20421;-72
2020/12/31 12:07:45;;;;;;;19.95;8.68;;;5.10;99.90;;;;;;5136898;27;20064;-72
2020/12/31 12:10:12;;;;;;;22.40;9.10;;;5.10;99.90;;;;;;5118383;27;20094;-72
2020/12/31 12:12:37;;;;;;;20.75;8.05;;;5.10;99.90;;;;;;5136772;27;20054;-72
2020/12/31 12:15:04;;;;;;;21.95;8.38;;;5.10;99.90;;;;;;5136498;27;20051;-72
2020/12/31 12:17:30;;;;;;;23.88;10.18;;;5.20;99.90;;;;;;5117887;27;20379;-73
2020/12/31 12:19:55;;;;;;;26.42;10.32;;;5.20;99.90;;;;;;5136529;27;20098;-72
2020/12/31 12:22:21;;;;;;;22.63;10.43;;;5.20;99.90;;;;;;5136217;27;20015;-72
2020/12/31 12:24:46;;;;;;;22.02;8.32;;;5.10;99.90;;;;;;5136732;27;20027;-72
2020/12/31 12:27:12;;;;;;;24.20;10.02;;;5.20;99.90;;;;;;5136988;27;20486;-72
2020/12/31 12:29:40;;;;;;;25.40;10.50;;;5.20;99.90;;;;;;5136680;27;20054;-72
2020/12/31 12:32:10;;;;;;;21.42;8.93;;;5.20;99.90;;;;;;5136671;27;20027;-73
2020/12/31 12:34:36;;;;;;;22.73;9.73;;;5.10;99.90;;;;;;5136572;27;20475;-73
2020/12/31 12:37:02;;;;;;;25.92;10.40;;;5.10;99.90;;;;;;5136124;27;20428;-72
2020/12/31 12:39:28;;;;;;;22.17;9.68;;;5.10;99.90;;;;;;5136619;27;20083;-73
2020/12/31 12:41:56;;;;;;;21.50;10.30;;;5.10;99.90;;;;;;5136196;27;20015;-72
2020/12/31 12:44:21;;;;;;;23.60;10.00;;;5.10;99.90;;;;;;5136479;27;20015;-72
2020/12/31 12:46:47;;;;;;;18.30;8.02;;;5.10;99.90;;;;;;5117510;27;20309;-72
2020/12/31 12:49:12;;;;;;;20.88;9.25;;;5.10;99.90;;;;;;5136217;27;20027;-72
2020/12/31 12:51:38;;;;;;;26.13;10.27;;;5.10;99.90;;;;;;5136880;27;20023;-72
2020/12/31 12:54:03;;;;;;;26.95;9.38;;;5.10;99.90;;;;;;5136426;27;20019;-72